sensor_id;sensor_type;location;lat;lon;timestamp;pressure;altitude;pressure_sealevel;temperature;humidity
83718;BME280;73701;52.234;21.288;2023-12-28T20:44:43;100253.66;;;4.66;84.82
83718;BME280;73701;52.234;21.288;2023-12-28T20:47:09;100251.09;;;4.63;85.23
83718;BME280;73701;52.234;21.288;2023-12-28T20:49:35;100240.91;;;4.57;85.10
83718;BME280;73701;52.234;21.288;2023-12-28T20:52:02;100254.59;;;4.59;85.33
83718;BME280;73701;52.234;21.288;2023-12-28T20:54:28;100208.66;;;4.36;84.95
83718;BME280;73701;52.234;21.288;2023-12-28T20:56:53;100246.09;;;4.55;85.46
83718;BME280;73701;52.234;21.288;2023-12-28T20:59:19;100182.41;;;4.13;85.61
83718;BME280;73701;52.234;21.288;2023-12-28T21:01:44;100247.06;;;4.48;85.65
83718;BME280;73701;52.234;21.288;2023-12-28T21:04:09;100188.53;;;4.06;85.91
83718;BME280;73701;52.234;21.288;2023-12-28T21:06:35;100248.84;;;4.43;85.81
83718;BME280;73701;52.234;21.288;2023-12-28T21:09:00;100194.41;;;4.13;85.83
83718;BME280;73701;52.234;21.288;2023-12-28T21:11:25;100244.66;;;4.36;86.22
83718;BME280;73701;52.234;21.288;2023-12-28T21:13:51;100242.13;;;4.32;86.40
83718;BME280;73701;52.234;21.288;2023-12-28T21:16:17;100244.75;;;4.29;86.20
83718;BME280;73701;52.234;21.288;2023-12-28T21:18:43;100234.56;;;4.22;86.14
83718;BME280;73701;52.234;21.288;2023-12-28T21:21:08;100005.31;;;2.76;86.07
83718;BME280;73701;52.234;21.288;2023-12-28T21:23:33;100244.94;;;4.15;86.62
83718;BME280;73701;52.234;21.288;2023-12-28T21:25:59;100212.59;;;3.99;86.55
83718;BME280;73701;52.234;21.288;2023-12-28T21:28:24;100238.13;;;4.11;86.65
83718;BME280;73701;52.234;21.288;2023-12-28T21:30:49;100174.44;;;3.70;86.70
83718;BME280;73701;52.234;21.288;2023-12-28T21:33:15;100241.56;;;4.10;87.04
83718;BME280;73701;52.234;21.288;2023-12-28T21:35:40;100213.59;;;3.87;86.71
83718;BME280;73701;52.234;21.288;2023-12-28T21:38:05;100237.38;;;4.05;87.02
83718;BME280;73701;52.234;21.288;2023-12-28T21:40:36;100219.59;;;3.88;87.13
83718;BME280;73701;52.234;21.288;2023-12-28T21:43:04;100239.00;;;4.10;87.39
83718;BME280;73701;52.234;21.288;2023-12-28T21:45:30;100244.13;;;4.12;87.44
83718;BME280;73701;52.234;21.288;2023-12-28T21:47:56;100238.09;;;4.13;87.33
83718;BME280;73701;52.234;21.288;2023-12-28T21:50:23;100176.25;;;3.60;87.36
83718;BME280;73701;52.234;21.288;2023-12-28T21:52:50;100242.44;;;4.11;87.01
83718;BME280;73701;52.234;21.288;2023-12-28T21:55:15;100230.50;;;4.05;87.48
83718;BME280;73701;52.234;21.288;2023-12-28T21:57:41;100240.69;;;4.11;86.95
83718;BME280;73701;52.234;21.288;2023-12-28T22:00:06;100238.19;;;4.08;87.17
83718;BME280;73701;52.234;21.288;2023-12-28T22:02:33;100238.09;;;4.13;87.46
83718;BME280;73701;52.234;21.288;2023-12-28T22:04:59;100214.44;;;3.89;87.04
83718;BME280;73701;52.234;21.288;2023-12-28T22:07:24;100215.28;;;3.90;87.00
83718;BME280;73701;52.234;21.288;2023-12-28T22:09:49;100246.63;;;4.17;87.37
83718;BME280;73701;52.234;21.288;2023-12-28T22:12:15;100262.13;;;4.10;86.42
83718;BME280;73701;52.234;21.288;2023-12-28T22:14:40;100222.03;;;3.97;86.36
83718;BME280;73701;52.234;21.288;2023-12-28T22:17:06;100226.22;;;4.04;86.74
83718;BME280;73701;52.234;21.288;2023-12-28T22:19:31;100237.25;;;4.12;86.74
83718;BME280;73701;52.234;21.288;2023-12-28T22:21:56;100255.31;;;4.08;86.79
83718;BME280;73701;52.234;21.288;2023-12-28T22:24:22;100234.88;;;3.98;87.22
83718;BME280;73701;52.234;21.288;2023-12-28T22:26:48;100222.06;;;3.95;86.65
83718;BME280;73701;52.234;21.288;2023-12-28T22:29:13;100234.91;;;3.95;86.78
83718;BME280;73701;52.234;21.288;2023-12-28T22:31:39;100222.94;;;3.93;86.68
83718;BME280;73701;52.234;21.288;2023-12-28T22:34:04;100185.59;;;3.67;86.68
83718;BME280;73701;52.234;21.288;2023-12-28T22:36:30;100228.94;;;3.95;87.02
83718;BME280;73701;52.234;21.288;2023-12-28T22:38:55;100212.84;;;3.80;86.99
83718;BME280;73701;52.234;21.288;2023-12-28T22:41:24;100223.06;;;3.85;86.87
83718;BME280;73701;52.234;21.288;2023-12-28T22:43:49;100229.91;;;3.85;86.64
83718;BME280;73701;52.234;21.288;2023-12-28T22:46:15;100224.81;;;3.82;87.01
83718;BME280;73701;52.234;21.288;2023-12-28T22:48:40;100214.59;;;3.75;86.77
83718;BME280;73701;52.234;21.288;2023-12-28T22:51:06;100229.22;;;3.70;87.28
83718;BME280;73701;52.234;21.288;2023-12-28T22:53:32;100225.91;;;3.63;87.06
83718;BME280;73701;52.234;21.288;2023-12-28T22:55:58;100216.56;;;3.55;87.04
83718;BME280;73701;52.234;21.288;2023-12-28T22:58:23;100240.44;;;3.63;86.50
83718;BME280;73701;52.234;21.288;2023-12-28T23:00:49;100224.34;;;3.47;87.09
83718;BME280;73701;52.234;21.288;2023-12-28T23:03:15;100229.44;;;3.50;87.41
83718;BME280;73701;52.234;21.288;2023-12-28T23:05:40;100114.75;;;2.74;87.49
83718;BME280;73701;52.234;21.288;2023-12-28T23:08:06;100221.84;;;3.42;87.87
83718;BME280;73701;52.234;21.288;2023-12-28T23:10:31;100229.50;;;3.45;87.14
83718;BME280;73701;52.234;21.288;2023-12-28T23:12:57;100229.50;;;3.45;87.54
83718;BME280;73701;52.234;21.288;2023-12-28T23:15:25;100226.16;;;3.37;87.76
83718;BME280;73701;52.234;21.288;2023-12-28T23:17:55;100185.31;;;3.17;88.09
83718;BME280;73701;52.234;21.288;2023-12-28T23:20:21;100227.03;;;3.39;87.66
83718;BME280;73701;52.234;21.288;2023-12-28T23:22:46;100228.69;;;3.40;87.81
83718;BME280;73701;52.234;21.288;2023-12-28T23:25:13;100228.75;;;3.36;87.74
83718;BME280;73701;52.234;21.288;2023-12-28T23:27:39;100221.19;;;3.22;88.04
83718;BME280;73701;52.234;21.288;2023-12-28T23:30:09;100212.69;;;3.18;88.07
83718;BME280;73701;52.234;21.288;2023-12-28T23:32:35;100220.38;;;3.20;88.78
83718;BME280;73701;52.234;21.288;2023-12-28T23:35:00;100120.03;;;2.59;88.17
83718;BME280;73701;52.234;21.288;2023-12-28T23:37:26;100209.25;;;3.21;87.94
83718;BME280;73701;52.234;21.288;2023-12-28T23:39:52;100172.66;;;2.99;88.30
83718;BME280;73701;52.234;21.288;2023-12-28T23:42:18;100204.13;;;3.18;88.35
83718;BME280;73701;52.234;21.288;2023-12-28T23:44:44;100209.28;;;3.13;87.65
83718;BME280;73701;52.234;21.288;2023-12-28T23:47:09;100199.13;;;3.04;88.05
83718;BME280;73701;52.234;21.288;2023-12-28T23:49:34;100176.13;;;2.94;87.76
83718;BME280;73701;52.234;21.288;2023-12-28T23:52:00;100213.63;;;3.06;88.00
83718;BME280;73701;52.234;21.288;2023-12-28T23:54:26;99990.97;;;1.68;88.43
83718;BME280;73701;52.234;21.288;2023-12-28T23:56:55;100204.25;;;3.07;88.46
83718;BME280;73701;52.234;21.288;2023-12-28T23:59:21;100070.75;;;2.28;88.99
